sensor_id;sensor_type;location;lat;lon;timestamp;P1;durP1;ratioP1;P2;durP2;ratioP2
31594;SDS011;18200;48.726;8.892;2023-10-31T00:00:54;0.20;;;0.20;;
31594;SDS011;18200;48.726;8.892;2023-10-31T00:04:57;0.30;;;0.30;;
31594;SDS011;18200;48.726;8.892;2023-10-31T00:08:58;0.35;;;0.20;;
31594;SDS011;18200;48.726;8.892;2023-10-31T00:12:58;0.45;;;0.20;;
31594;SDS011;18200;48.726;8.892;2023-10-31T00:16:58;0.57;;;0.30;;
31594;SDS011;18200;48.726;8.892;2023-10-31T00:20:59;0.32;;;0.25;;
31594;SDS011;18200;48.726;8.892;2023-10-31T00:25:00;0.50;;;0.20;;
31594;SDS011;18200;48.726;8.892;2023-10-31T00:29:01;0.35;;;0.20;;
31594;SDS011;18200;48.726;8.892;2023-10-31T00:33:01;1.17;;;0.20;;
31594;SDS011;18200;48.726;8.892;2023-10-31T00:37:01;0.70;;;0.40;;
31594;SDS011;18200;48.726;8.892;2023-10-31T00:41:02;2.28;;;0.30;;
31594;SDS011;18200;48.726;8.892;2023-10-31T00:45:03;0.55;;;0.38;;
31594;SDS011;18200;48.726;8.892;2023-10-31T00:49:03;0.30;;;0.30;;
31594;SDS011;18200;48.726;8.892;2023-10-31T00:53:04;2.65;;;0.40;;
31594;SDS011;18200;48.726;8.892;2023-10-31T00:57:04;0.60;;;0.38;;
31594;SDS011;18200;48.726;8.892;2023-10-31T01:01:05;2.05;;;0.47;;
31594;SDS011;18200;48.726;8.892;2023-10-31T01:05:05;0.52;;;0.40;;
31594;SDS011;18200;48.726;8.892;2023-10-31T01:09:06;0.77;;;0.28;;
31594;SDS011;18200;48.726;8.892;2023-10-31T01:13:06;1.58;;;0.40;;
31594;SDS011;18200;48.726;8.892;2023-10-31T01:17:08;2.05;;;0.40;;
31594;SDS011;18200;48.726;8.892;2023-10-31T01:21:08;0.80;;;0.57;;
31594;SDS011;18200;48.726;8.892;2023-10-31T01:25:09;1.67;;;0.50;;
31594;SDS011;18200;48.726;8.892;2023-10-31T01:29:10;4.38;;;1.05;;
31594;SDS011;18200;48.726;8.892;2023-10-31T01:33:11;1.33;;;0.40;;
31594;SDS011;18200;48.726;8.892;2023-10-31T01:37:11;0.43;;;0.30;;
31594;SDS011;18200;48.726;8.892;2023-10-31T01:41:12;0.30;;;0.30;;
31594;SDS011;18200;48.726;8.892;2023-10-31T01:45:13;3.50;;;0.50;;
31594;SDS011;18200;48.726;8.892;2023-10-31T01:49:14;0.90;;;0.38;;
31594;SDS011;18200;48.726;8.892;2023-10-31T01:53:14;0.40;;;0.38;;
31594;SDS011;18200;48.726;8.892;2023-10-31T01:57:15;2.38;;;0.40;;
31594;SDS011;18200;48.726;8.892;2023-10-31T02:01:16;3.10;;;0.40;;
31594;SDS011;18200;48.726;8.892;2023-10-31T02:05:16;3.03;;;0.60;;
31594;SDS011;18200;48.726;8.892;2023-10-31T02:09:17;0.95;;;0.50;;
31594;SDS011;18200;48.726;8.892;2023-10-31T02:13:18;2.15;;;0.45;;
31594;SDS011;18200;48.726;8.892;2023-10-31T02:17:18;0.50;;;0.35;;
31594;SDS011;18200;48.726;8.892;2023-10-31T02:21:19;1.58;;;0.50;;
31594;SDS011;18200;48.726;8.892;2023-10-31T02:25:20;0.50;;;0.40;;
31594;SDS011;18200;48.726;8.892;2023-10-31T02:29:21;2.00;;;0.45;;
31594;SDS011;18200;48.726;8.892;2023-10-31T02:33:23;0.50;;;0.40;;
31594;SDS011;18200;48.726;8.892;2023-10-31T02:37:23;0.73;;;0.40;;
31594;SDS011;18200;48.726;8.892;2023-10-31T02:41:23;5.97;;;0.70;;
31594;SDS011;18200;48.726;8.892;2023-10-31T02:45:24;1.10;;;0.50;;
31594;SDS011;18200;48.726;8.892;2023-10-31T02:49:24;3.63;;;0.40;;
31594;SDS011;18200;48.726;8.892;2023-10-31T02:53:24;4.38;;;0.60;;
31594;SDS011;18200;48.726;8.892;2023-10-31T02:57:25;1.67;;;0.50;;
31594;SDS011;18200;48.726;8.892;2023-10-31T03:01:27;1.70;;;0.50;;
31594;SDS011;18200;48.726;8.892;2023-10-31T03:05:28;6.32;;;0.85;;
31594;SDS011;18200;48.726;8.892;2023-10-31T03:09:29;1.42;;;0.60;;
31594;SDS011;18200;48.726;8.892;2023-10-31T03:13:29;1.45;;;0.50;;
31594;SDS011;18200;48.726;8.892;2023-10-31T03:17:29;3.33;;;0.55;;
31594;SDS011;18200;48.726;8.892;2023-10-31T03:21:30;2.17;;;0.60;;
31594;SDS011;18200;48.726;8.892;2023-10-31T03:25:30;2.67;;;0.65;;
31594;SDS011;18200;48.726;8.892;2023-10-31T03:29:32;3.80;;;0.43;;
31594;SDS011;18200;48.726;8.892;2023-10-31T03:33:32;3.15;;;0.60;;
31594;SDS011;18200;48.726;8.892;2023-10-31T03:37:33;4.65;;;0.70;;
31594;SDS011;18200;48.726;8.892;2023-10-31T03:41:33;1.23;;;0.77;;
31594;SDS011;18200;48.726;8.892;2023-10-31T03:45:34;1.65;;;0.73;;
31594;SDS011;18200;48.726;8.892;2023-10-31T03:49:37;1.13;;;0.50;;
31594;SDS011;18200;48.726;8.892;2023-10-31T03:53:38;1.95;;;0.85;;
31594;SDS011;18200;48.726;8.892;2023-10-31T03:57:39;2.67;;;0.50;;
31594;SDS011;18200;48.726;8.892;2023-10-31T04:01:39;0.82;;;0.50;;
31594;SDS011;18200;48.726;8.892;2023-10-31T04:05:40;3.67;;;0.70;;
31594;SDS011;18200;48.726;8.892;2023-10-31T04:09:40;1.33;;;0.50;;
31594;SDS011;18200;48.726;8.892;2023-10-31T04:13:41;1.23;;;0.60;;
31594;SDS011;18200;48.726;8.892;2023-10-31T04:17:41;10.15;;;1.00;;
31594;SDS011;18200;48.726;8.892;2023-10-31T04:21:42;1.20;;;0.55;;
31594;SDS011;18200;48.726;8.892;2023-10-31T04:25:42;3.20;;;1.00;;
31594;SDS011;18200;48.726;8.892;2023-10-31T04:29:43;8.00;;;1.40;;
31594;SDS011;18200;48.726;8.892;2023-10-31T04:33:44;3.63;;;0.60;;
31594;SDS011;18200;48.726;8.892;2023-10-31T04:37:44;2.47;;;0.65;;
31594;SDS011;18200;48.726;8.892;2023-10-31T04:41:44;3.15;;;0.40;;
31594;SDS011;18200;48.726;8.892;2023-10-31T04:45:45;4.18;;;2.15;;
31594;SDS011;18200;48.726;8.892;2023-10-31T04:49:45;3.33;;;0.40;;
31594;SDS011;18200;48.726;8.892;2023-10-31T04:53:45;0.70;;;0.30;;
31594;SDS011;18200;48.726;8.892;2023-10-31T04:57:46;0.35;;;0.20;;
31594;SDS011;18200;48.726;8.892;2023-10-31T05:01:49;1.90;;;0.40;;
31594;SDS011;18200;48.726;8.892;2023-10-31T05:09:51;1.95;;;0.40;;
31594;SDS011;18200;48.726;8.892;2023-10-31T05:13:51;4.50;;;0.45;;
31594;SDS011;18200;48.726;8.892;2023-10-31T05:17:52;0.90;;;0.30;;
31594;SDS011;18200;48.726;8.892;2023-10-31T05:21:52;3.90;;;0.55;;
31594;SDS011;18200;48.726;8.892;2023-10-31T05:25:52;2.22;;;0.32;;
31594;SDS011;18200;48.726;8.892;2023-10-31T05:29:53;1.23;;;0.32;;
31594;SDS011;18200;48.726;8.892;2023-10-31T05:33:53;1.50;;;0.57;;
31594;SDS011;18200;48.726;8.892;2023-10-31T05:37:53;2.75;;;0.40;;
31594;SDS011;18200;48.726;8.892;2023-10-31T05:41:54;0.65;;;0.30;;
31594;SDS011;18200;48.726;8.892;2023-10-31T05:45:54;2.55;;;0.38;;
31594;SDS011;18200;48.726;8.892;2023-10-31T05:49:54;5.60;;;0.65;;
31594;SDS011;18200;48.726;8.892;2023-10-31T05:53:55;1.05;;;0.50;;
31594;SDS011;18200;48.726;8.892;2023-10-31T05:57:55;0.50;;;0.30;;
31594;SDS011;18200;48.726;8.892;2023-10-31T06:01:55;0.93;;;0.40;;
31594;SDS011;18200;48.726;8.892;2023-10-31T06:05:56;0.80;;;0.35;;
31594;SDS011;18200;48.726;8.892;2023-10-31T06:09:56;3.97;;;2.20;;
31594;SDS011;18200;48.726;8.892;2023-10-31T06:13:56;4.35;;;2.72;;
31594;SDS011;18200;48.726;8.892;2023-10-31T06:17:58;3.45;;;1.25;;
31594;SDS011;18200;48.726;8.892;2023-10-31T06:21:59;0.95;;;0.60;;
31594;SDS011;18200;48.726;8.892;2023-10-31T06:25:59;1.02;;;0.57;;
31594;SDS011;18200;48.726;8.892;2023-10-31T06:30:00;1.48;;;0.45;;
31594;SDS011;18200;48.726;8.892;2023-10-31T06:34:00;2.00;;;0.45;;
31594;SDS011;18200;48.726;8.892;2023-10-31T06:38:00;1.65;;;1.00;;
31594;SDS011;18200;48.726;8.892;2023-10-31T06:42:01;1.75;;;0.50;;
31594;SDS011;18200;48.726;8.892;2023-10-31T06:46:01;0.85;;;0.45;;
31594;SDS011;18200;48.726;8.892;2023-10-31T06:50:04;2.95;;;0.85;;
31594;SDS011;18200;48.726;8.892;2023-10-31T06:54:05;1.80;;;0.88;;
31594;SDS011;18200;48.726;8.892;2023-10-31T06:58:05;1.20;;;0.57;;
31594;SDS011;18200;48.726;8.892;2023-10-31T07:02:06;1.10;;;0.50;;
31594;SDS011;18200;48.726;8.892;2023-10-31T07:06:07;2.03;;;0.80;;
31594;SDS011;18200;48.726;8.892;2023-10-31T07:10:07;2.83;;;0.88;;
31594;SDS011;18200;48.726;8.892;2023-10-31T07:14:08;1.67;;;0.95;;
31594;SDS011;18200;48.726;8.892;2023-10-31T07:18:08;3.92;;;1.00;;
31594;SDS011;18200;48.726;8.892;2023-10-31T07:22:08;2.65;;;0.77;;
31594;SDS011;18200;48.726;8.892;2023-10-31T07:26:09;1.38;;;0.70;;
31594;SDS011;18200;48.726;8.892;2023-10-31T07:30:10;3.53;;;0.70;;
31594;SDS011;18200;48.726;8.892;2023-10-31T07:34:10;3.22;;;0.93;;
31594;SDS011;18200;48.726;8.892;2023-10-31T07:38:11;4.78;;;0.75;;
31594;SDS011;18200;48.726;8.892;2023-10-31T07:42:11;3.50;;;0.63;;
31594;SDS011;18200;48.726;8.892;2023-10-31T07:46:12;2.63;;;0.88;;
31594;SDS011;18200;48.726;8.892;2023-10-31T07:50:12;3.03;;;0.65;;
31594;SDS011;18200;48.726;8.892;2023-10-31T07:54:13;1.90;;;0.82;;
31594;SDS011;18200;48.726;8.892;2023-10-31T07:58:15;2.00;;;0.60;;
31594;SDS011;18200;48.726;8.892;2023-10-31T08:02:15;3.58;;;1.55;;
31594;SDS011;18200;48.726;8.892;2023-10-31T08:06:15;4.00;;;1.23;;
31594;SDS011;18200;48.726;8.892;2023-10-31T08:10:16;2.85;;;1.13;;
31594;SDS011;18200;48.726;8.892;2023-10-31T08:14:16;3.15;;;1.55;;
31594;SDS011;18200;48.726;8.892;2023-10-31T08:18:16;2.25;;;1.00;;
31594;SDS011;18200;48.726;8.892;2023-10-31T08:22:17;3.00;;;1.27;;
31594;SDS011;18200;48.726;8.892;2023-10-31T08:26:17;3.03;;;0.90;;
31594;SDS011;18200;48.726;8.892;2023-10-31T08:30:18;2.80;;;0.80;;
31594;SDS011;18200;48.726;8.892;2023-10-31T08:34:20;3.22;;;0.90;;
31594;SDS011;18200;48.726;8.892;2023-10-31T08:38:20;9.88;;;1.30;;
31594;SDS011;18200;48.726;8.892;2023-10-31T08:42:20;5.60;;;1.10;;
31594;SDS011;18200;48.726;8.892;2023-10-31T08:46:21;1.90;;;0.80;;
31594;SDS011;18200;48.726;8.892;2023-10-31T08:50:22;4.10;;;0.95;;
31594;SDS011;18200;48.726;8.892;2023-10-31T08:54:22;1.85;;;1.10;;
31594;SDS011;18200;48.726;8.892;2023-10-31T08:58:22;4.13;;;1.35;;
31594;SDS011;18200;48.726;8.892;2023-10-31T09:02:23;4.68;;;1.33;;
31594;SDS011;18200;48.726;8.892;2023-10-31T09:06:23;5.55;;;1.33;;
31594;SDS011;18200;48.726;8.892;2023-10-31T09:10:23;8.88;;;0.90;;
31594;SDS011;18200;48.726;8.892;2023-10-31T09:14:24;6.00;;;1.08;;
31594;SDS011;18200;48.726;8.892;2023-10-31T09:18:24;6.30;;;2.40;;
31594;SDS011;18200;48.726;8.892;2023-10-31T09:22:25;5.25;;;1.73;;
31594;SDS011;18200;48.726;8.892;2023-10-31T09:26:25;5.65;;;1.77;;
31594;SDS011;18200;48.726;8.892;2023-10-31T09:30:26;3.78;;;1.05;;
31594;SDS011;18200;48.726;8.892;2023-10-31T09:34:26;8.75;;;1.85;;
31594;SDS011;18200;48.726;8.892;2023-10-31T09:38:27;4.43;;;1.08;;
31594;SDS011;18200;48.726;8.892;2023-10-31T09:42:27;3.22;;;0.73;;
31594;SDS011;18200;48.726;8.892;2023-10-31T09:46:28;5.65;;;1.13;;
31594;SDS011;18200;48.726;8.892;2023-10-31T09:50:29;4.05;;;1.00;;
31594;SDS011;18200;48.726;8.892;2023-10-31T09:54:30;6.00;;;1.15;;
31594;SDS011;18200;48.726;8.892;2023-10-31T09:58:30;2.75;;;1.00;;
31594;SDS011;18200;48.726;8.892;2023-10-31T10:02:31;8.18;;;1.10;;
31594;SDS011;18200;48.726;8.892;2023-10-31T10:06:31;7.57;;;0.77;;
31594;SDS011;18200;48.726;8.892;2023-10-31T10:10:33;3.25;;;1.30;;
31594;SDS011;18200;48.726;8.892;2023-10-31T10:14:34;3.53;;;1.00;;
31594;SDS011;18200;48.726;8.892;2023-10-31T10:18:35;3.63;;;0.98;;
31594;SDS011;18200;48.726;8.892;2023-10-31T10:22:39;5.40;;;0.88;;
31594;SDS011;18200;48.726;8.892;2023-10-31T10:26:40;3.20;;;1.42;;
31594;SDS011;18200;48.726;8.892;2023-10-31T10:30:40;6.18;;;4.55;;
31594;SDS011;18200;48.726;8.892;2023-10-31T10:34:41;2.90;;;1.13;;
31594;SDS011;18200;48.726;8.892;2023-10-31T10:38:42;3.85;;;1.45;;
31594;SDS011;18200;48.726;8.892;2023-10-31T10:42:47;15.15;;;2.42;;
31594;SDS011;18200;48.726;8.892;2023-10-31T10:46:48;3.53;;;0.60;;
31594;SDS011;18200;48.726;8.892;2023-10-31T10:50:57;4.53;;;0.70;;
31594;SDS011;18200;48.726;8.892;2023-10-31T10:55:11;2.90;;;0.80;;
31594;SDS011;18200;48.726;8.892;2023-10-31T10:59:20;3.17;;;0.45;;
31594;SDS011;18200;48.726;8.892;2023-10-31T11:03:22;6.28;;;0.60;;
31594;SDS011;18200;48.726;8.892;2023-10-31T11:07:24;2.10;;;0.45;;
31594;SDS011;18200;48.726;8.892;2023-10-31T11:11:26;2.67;;;0.52;;
31594;SDS011;18200;48.726;8.892;2023-10-31T11:15:27;1.48;;;0.40;;
31594;SDS011;18200;48.726;8.892;2023-10-31T11:19:31;3.00;;;0.63;;
31594;SDS011;18200;48.726;8.892;2023-10-31T11:23:33;1.48;;;0.40;;
31594;SDS011;18200;48.726;8.892;2023-10-31T11:27:34;1.58;;;0.68;;
31594;SDS011;18200;48.726;8.892;2023-10-31T11:31:37;1.63;;;0.63;;
31594;SDS011;18200;48.726;8.892;2023-10-31T11:35:38;3.95;;;0.68;;
31594;SDS011;18200;48.726;8.892;2023-10-31T11:39:40;3.00;;;0.45;;
31594;SDS011;18200;48.726;8.892;2023-10-31T11:47:47;6.30;;;1.20;;
31594;SDS011;18200;48.726;8.892;2023-10-31T11:51:48;8.05;;;3.15;;
31594;SDS011;18200;48.726;8.892;2023-10-31T11:55:50;22.58;;;9.65;;
31594;SDS011;18200;48.726;8.892;2023-10-31T11:59:52;19.63;;;8.10;;
31594;SDS011;18200;48.726;8.892;2023-10-31T12:03:52;16.30;;;7.35;;
31594;SDS011;18200;48.726;8.892;2023-10-31T12:07:53;5.03;;;1.30;;
31594;SDS011;18200;48.726;8.892;2023-10-31T12:11:53;3.88;;;1.55;;
31594;SDS011;18200;48.726;8.892;2023-10-31T12:15:54;2.85;;;0.88;;
31594;SDS011;18200;48.726;8.892;2023-10-31T12:19:54;2.22;;;0.90;;
31594;SDS011;18200;48.726;8.892;2023-10-31T12:24:01;3.20;;;0.57;;
31594;SDS011;18200;48.726;8.892;2023-10-31T12:28:03;4.30;;;0.70;;
31594;SDS011;18200;48.726;8.892;2023-10-31T12:32:03;1.65;;;0.52;;
31594;SDS011;18200;48.726;8.892;2023-10-31T12:36:05;2.38;;;0.70;;
31594;SDS011;18200;48.726;8.892;2023-10-31T12:40:06;2.50;;;1.83;;
31594;SDS011;18200;48.726;8.892;2023-10-31T12:44:09;2.55;;;0.50;;
31594;SDS011;18200;48.726;8.892;2023-10-31T12:48:10;1.02;;;0.60;;
31594;SDS011;18200;48.726;8.892;2023-10-31T12:52:12;1.38;;;0.73;;
31594;SDS011;18200;48.726;8.892;2023-10-31T12:56:12;1.55;;;0.60;;
31594;SDS011;18200;48.726;8.892;2023-10-31T13:00:39;4.28;;;1.17;;
31594;SDS011;18200;48.726;8.892;2023-10-31T13:04:40;2.47;;;0.30;;
31594;SDS011;18200;48.726;8.892;2023-10-31T13:08:40;2.15;;;0.47;;
31594;SDS011;18200;48.726;8.892;2023-10-31T13:12:42;0.85;;;0.40;;
31594;SDS011;18200;48.726;8.892;2023-10-31T13:16:44;1.50;;;0.28;;
31594;SDS011;18200;48.726;8.892;2023-10-31T13:20:44;0.10;;;0.10;;
31594;SDS011;18200;48.726;8.892;2023-10-31T13:24:45;1.35;;;0.25;;
31594;SDS011;18200;48.726;8.892;2023-10-31T13:28:45;0.40;;;0.30;;
31594;SDS011;18200;48.726;8.892;2023-10-31T13:32:46;0.55;;;0.32;;
31594;SDS011;18200;48.726;8.892;2023-10-31T13:36:46;0.85;;;0.20;;
31594;SDS011;18200;48.726;8.892;2023-10-31T13:40:47;0.68;;;0.28;;
31594;SDS011;18200;48.726;8.892;2023-10-31T13:44:48;0.47;;;0.20;;
31594;SDS011;18200;48.726;8.892;2023-10-31T13:48:48;3.15;;;0.50;;
31594;SDS011;18200;48.726;8.892;2023-10-31T13:52:49;0.98;;;0.30;;
31594;SDS011;18200;48.726;8.892;2023-10-31T13:56:49;2.28;;;0.40;;
31594;SDS011;18200;48.726;8.892;2023-10-31T14:00:49;2.53;;;0.40;;
31594;SDS011;18200;48.726;8.892;2023-10-31T14:04:50;2.47;;;0.30;;
31594;SDS011;18200;48.726;8.892;2023-10-31T14:08:50;2.47;;;1.38;;
31594;SDS011;18200;48.726;8.892;2023-10-31T14:12:51;1.85;;;0.80;;
31594;SDS011;18200;48.726;8.892;2023-10-31T14:16:52;3.28;;;0.30;;
31594;SDS011;18200;48.726;8.892;2023-10-31T14:20:53;4.70;;;0.73;;
31594;SDS011;18200;48.726;8.892;2023-10-31T14:24:53;2.05;;;0.63;;
31594;SDS011;18200;48.726;8.892;2023-10-31T14:28:53;2.80;;;0.60;;
31594;SDS011;18200;48.726;8.892;2023-10-31T14:32:54;2.53;;;0.40;;
31594;SDS011;18200;48.726;8.892;2023-10-31T14:36:54;5.20;;;0.68;;
31594;SDS011;18200;48.726;8.892;2023-10-31T14:40:54;3.13;;;0.60;;
31594;SDS011;18200;48.726;8.892;2023-10-31T14:44:55;1.88;;;0.47;;
31594;SDS011;18200;48.726;8.892;2023-10-31T14:48:57;6.88;;;0.93;;
31594;SDS011;18200;48.726;8.892;2023-10-31T14:52:57;0.82;;;0.45;;
31594;SDS011;18200;48.726;8.892;2023-10-31T14:56:58;2.67;;;0.40;;
31594;SDS011;18200;48.726;8.892;2023-10-31T15:00:58;4.10;;;0.50;;
31594;SDS011;18200;48.726;8.892;2023-10-31T15:04:58;5.25;;;0.82;;
31594;SDS011;18200;48.726;8.892;2023-10-31T15:08:59;1.50;;;0.50;;
31594;SDS011;18200;48.726;8.892;2023-10-31T15:12:59;3.63;;;0.50;;
31594;SDS011;18200;48.726;8.892;2023-10-31T15:17:00;2.08;;;0.55;;
31594;SDS011;18200;48.726;8.892;2023-10-31T15:21:00;3.40;;;1.15;;
31594;SDS011;18200;48.726;8.892;2023-10-31T15:25:00;1.75;;;0.80;;
31594;SDS011;18200;48.726;8.892;2023-10-31T15:29:01;1.95;;;0.90;;
31594;SDS011;18200;48.726;8.892;2023-10-31T15:33:01;3.72;;;1.10;;
31594;SDS011;18200;48.726;8.892;2023-10-31T15:37:01;3.67;;;0.80;;
31594;SDS011;18200;48.726;8.892;2023-10-31T15:41:02;5.43;;;2.22;;
31594;SDS011;18200;48.726;8.892;2023-10-31T15:45:03;4.43;;;1.05;;
31594;SDS011;18200;48.726;8.892;2023-10-31T15:49:04;4.18;;;2.22;;
31594;SDS011;18200;48.726;8.892;2023-10-31T15:53:04;7.38;;;2.40;;
31594;SDS011;18200;48.726;8.892;2023-10-31T15:57:06;3.40;;;1.70;;
31594;SDS011;18200;48.726;8.892;2023-10-31T16:01:06;7.97;;;3.90;;
31594;SDS011;18200;48.726;8.892;2023-10-31T16:05:07;9.15;;;3.33;;
31594;SDS011;18200;48.726;8.892;2023-10-31T16:09:07;4.10;;;2.05;;
31594;SDS011;18200;48.726;8.892;2023-10-31T16:13:08;7.03;;;3.42;;
31594;SDS011;18200;48.726;8.892;2023-10-31T16:17:09;2.50;;;1.23;;
31594;SDS011;18200;48.726;8.892;2023-10-31T16:21:16;3.30;;;1.15;;
31594;SDS011;18200;48.726;8.892;2023-10-31T16:25:19;4.55;;;1.58;;
31594;SDS011;18200;48.726;8.892;2023-10-31T16:29:20;1.83;;;1.48;;
31594;SDS011;18200;48.726;8.892;2023-10-31T16:33:20;4.80;;;1.65;;
31594;SDS011;18200;48.726;8.892;2023-10-31T16:37:21;4.72;;;2.00;;
31594;SDS011;18200;48.726;8.892;2023-10-31T16:41:21;2.83;;;1.80;;
31594;SDS011;18200;48.726;8.892;2023-10-31T16:45:21;8.27;;;2.92;;
31594;SDS011;18200;48.726;8.892;2023-10-31T16:49:22;24.02;;;10.70;;
31594;SDS011;18200;48.726;8.892;2023-10-31T16:53:22;20.17;;;12.77;;
31594;SDS011;18200;48.726;8.892;2023-10-31T16:57:23;8.90;;;4.97;;
31594;SDS011;18200;48.726;8.892;2023-10-31T17:01:24;7.53;;;4.38;;
31594;SDS011;18200;48.726;8.892;2023-10-31T17:05:24;5.72;;;4.15;;
31594;SDS011;18200;48.726;8.892;2023-10-31T17:09:24;5.32;;;3.30;;
31594;SDS011;18200;48.726;8.892;2023-10-31T17:13:25;3.33;;;2.00;;
31594;SDS011;18200;48.726;8.892;2023-10-31T17:17:26;4.50;;;2.40;;
31594;SDS011;18200;48.726;8.892;2023-10-31T17:21:26;6.75;;;4.53;;
31594;SDS011;18200;48.726;8.892;2023-10-31T17:25:27;9.88;;;3.83;;
31594;SDS011;18200;48.726;8.892;2023-10-31T17:29:27;9.15;;;5.45;;
31594;SDS011;18200;48.726;8.892;2023-10-31T17:33:27;12.70;;;9.00;;
31594;SDS011;18200;48.726;8.892;2023-10-31T17:37:28;18.35;;;12.63;;
31594;SDS011;18200;48.726;8.892;2023-10-31T17:41:28;14.00;;;9.00;;
31594;SDS011;18200;48.726;8.892;2023-10-31T17:45:29;12.00;;;6.10;;
31594;SDS011;18200;48.726;8.892;2023-10-31T17:49:29;9.05;;;6.30;;
31594;SDS011;18200;48.726;8.892;2023-10-31T17:53:29;5.18;;;2.58;;
31594;SDS011;18200;48.726;8.892;2023-10-31T17:57:30;4.50;;;2.35;;
31594;SDS011;18200;48.726;8.892;2023-10-31T18:01:30;4.32;;;2.42;;
31594;SDS011;18200;48.726;8.892;2023-10-31T18:05:30;4.93;;;2.38;;
31594;SDS011;18200;48.726;8.892;2023-10-31T18:09:32;9.45;;;6.03;;
31594;SDS011;18200;48.726;8.892;2023-10-31T18:13:32;5.10;;;2.00;;
31594;SDS011;18200;48.726;8.892;2023-10-31T18:17:33;5.63;;;1.95;;
31594;SDS011;18200;48.726;8.892;2023-10-31T18:21:33;2.92;;;2.00;;
31594;SDS011;18200;48.726;8.892;2023-10-31T18:25:34;3.97;;;1.85;;
31594;SDS011;18200;48.726;8.892;2023-10-31T18:29:34;3.83;;;2.50;;
31594;SDS011;18200;48.726;8.892;2023-10-31T18:33:35;5.97;;;2.50;;
31594;SDS011;18200;48.726;8.892;2023-10-31T18:37:36;4.22;;;2.30;;
31594;SDS011;18200;48.726;8.892;2023-10-31T18:41:36;7.95;;;3.97;;
31594;SDS011;18200;48.726;8.892;2023-10-31T18:45:39;6.47;;;3.92;;
31594;SDS011;18200;48.726;8.892;2023-10-31T18:49:39;8.40;;;2.58;;
31594;SDS011;18200;48.726;8.892;2023-10-31T18:53:40;5.20;;;2.40;;
31594;SDS011;18200;48.726;8.892;2023-10-31T18:57:40;3.33;;;2.40;;
31594;SDS011;18200;48.726;8.892;2023-10-31T19:01:41;5.30;;;3.63;;
31594;SDS011;18200;48.726;8.892;2023-10-31T19:05:44;2.85;;;2.40;;
31594;SDS011;18200;48.726;8.892;2023-10-31T19:09:45;5.50;;;3.78;;
31594;SDS011;18200;48.726;8.892;2023-10-31T19:13:45;4.13;;;2.78;;
31594;SDS011;18200;48.726;8.892;2023-10-31T19:17:46;3.83;;;2.40;;
31594;SDS011;18200;48.726;8.892;2023-10-31T19:21:46;2.28;;;1.45;;
31594;SDS011;18200;48.726;8.892;2023-10-31T19:25:46;5.95;;;3.38;;
31594;SDS011;18200;48.726;8.892;2023-10-31T19:29:48;4.85;;;2.78;;
31594;SDS011;18200;48.726;8.892;2023-10-31T19:33:49;9.57;;;5.15;;
31594;SDS011;18200;48.726;8.892;2023-10-31T19:37:50;6.15;;;3.22;;
31594;SDS011;18200;48.726;8.892;2023-10-31T19:41:51;8.35;;;4.20;;
31594;SDS011;18200;48.726;8.892;2023-10-31T19:45:51;7.03;;;3.40;;
31594;SDS011;18200;48.726;8.892;2023-10-31T19:49:52;4.93;;;2.03;;
31594;SDS011;18200;48.726;8.892;2023-10-31T19:53:52;4.55;;;2.70;;
31594;SDS011;18200;48.726;8.892;2023-10-31T19:57:52;7.72;;;4.30;;
31594;SDS011;18200;48.726;8.892;2023-10-31T20:01:53;12.48;;;5.93;;
31594;SDS011;18200;48.726;8.892;2023-10-31T20:05:54;9.93;;;5.78;;
31594;SDS011;18200;48.726;8.892;2023-10-31T20:09:55;9.77;;;5.03;;
31594;SDS011;18200;48.726;8.892;2023-10-31T20:13:55;7.90;;;4.00;;
31594;SDS011;18200;48.726;8.892;2023-10-31T20:17:56;6.07;;;3.90;;
31594;SDS011;18200;48.726;8.892;2023-10-31T20:21:56;9.05;;;3.95;;
31594;SDS011;18200;48.726;8.892;2023-10-31T20:25:56;7.32;;;3.67;;
31594;SDS011;18200;48.726;8.892;2023-10-31T20:29:57;4.60;;;3.20;;
31594;SDS011;18200;48.726;8.892;2023-10-31T20:33:57;8.90;;;5.13;;
31594;SDS011;18200;48.726;8.892;2023-10-31T20:37:58;6.18;;;3.05;;
31594;SDS011;18200;48.726;8.892;2023-10-31T20:41:58;3.40;;;2.00;;
31594;SDS011;18200;48.726;8.892;2023-10-31T20:45:59;4.80;;;2.15;;
31594;SDS011;18200;48.726;8.892;2023-10-31T20:49:59;4.75;;;2.00;;
31594;SDS011;18200;48.726;8.892;2023-10-31T20:53:59;5.75;;;1.92;;
31594;SDS011;18200;48.726;8.892;2023-10-31T20:58:00;7.38;;;1.67;;
31594;SDS011;18200;48.726;8.892;2023-10-31T21:02:00;4.40;;;1.50;;
31594;SDS011;18200;48.726;8.892;2023-10-31T21:06:00;2.13;;;1.40;;
31594;SDS011;18200;48.726;8.892;2023-10-31T21:10:01;3.25;;;1.40;;
31594;SDS011;18200;48.726;8.892;2023-10-31T21:14:01;2.38;;;1.60;;
31594;SDS011;18200;48.726;8.892;2023-10-31T21:18:03;3.00;;;1.70;;
31594;SDS011;18200;48.726;8.892;2023-10-31T21:22:03;2.95;;;1.77;;
31594;SDS011;18200;48.726;8.892;2023-10-31T21:26:04;3.20;;;2.40;;
31594;SDS011;18200;48.726;8.892;2023-10-31T21:30:04;5.35;;;2.22;;
31594;SDS011;18200;48.726;8.892;2023-10-31T21:34:05;3.75;;;2.13;;
31594;SDS011;18200;48.726;8.892;2023-10-31T21:38:06;4.95;;;2.33;;
31594;SDS011;18200;48.726;8.892;2023-10-31T21:42:06;18.58;;;10.38;;
31594;SDS011;18200;48.726;8.892;2023-10-31T21:46:07;6.68;;;4.70;;
31594;SDS011;18200;48.726;8.892;2023-10-31T21:50:07;3.00;;;2.08;;
31594;SDS011;18200;48.726;8.892;2023-10-31T21:54:08;4.50;;;2.20;;
31594;SDS011;18200;48.726;8.892;2023-10-31T21:58:08;3.58;;;2.20;;
31594;SDS011;18200;48.726;8.892;2023-10-31T22:02:09;6.18;;;2.63;;
31594;SDS011;18200;48.726;8.892;2023-10-31T22:06:09;5.72;;;3.08;;
31594;SDS011;18200;48.726;8.892;2023-10-31T22:10:11;7.47;;;2.97;;
31594;SDS011;18200;48.726;8.892;2023-10-31T22:14:12;5.20;;;3.15;;
31594;SDS011;18200;48.726;8.892;2023-10-31T22:18:13;6.38;;;3.63;;
31594;SDS011;18200;48.726;8.892;2023-10-31T22:22:13;8.20;;;3.63;;
31594;SDS011;18200;48.726;8.892;2023-10-31T22:26:14;5.35;;;3.72;;
31594;SDS011;18200;48.726;8.892;2023-10-31T22:30:15;6.05;;;3.42;;
31594;SDS011;18200;48.726;8.892;2023-10-31T22:34:16;4.32;;;2.33;;
31594;SDS011;18200;48.726;8.892;2023-10-31T22:38:16;18.00;;;9.93;;
31594;SDS011;18200;48.726;8.892;2023-10-31T22:42:16;18.80;;;11.13;;
31594;SDS011;18200;48.726;8.892;2023-10-31T22:46:17;20.83;;;10.35;;
31594;SDS011;18200;48.726;8.892;2023-10-31T22:50:17;10.52;;;5.10;;
31594;SDS011;18200;48.726;8.892;2023-10-31T22:54:17;9.27;;;4.88;;
31594;SDS011;18200;48.726;8.892;2023-10-31T22:58:18;7.03;;;4.28;;
31594;SDS011;18200;48.726;8.892;2023-10-31T23:02:18;8.27;;;4.82;;
31594;SDS011;18200;48.726;8.892;2023-10-31T23:06:19;6.72;;;3.92;;
31594;SDS011;18200;48.726;8.892;2023-10-31T23:10:19;6.80;;;4.35;;
31594;SDS011;18200;48.726;8.892;2023-10-31T23:14:20;6.82;;;4.63;;
31594;SDS011;18200;48.726;8.892;2023-10-31T23:18:21;6.18;;;4.45;;
31594;SDS011;18200;48.726;8.892;2023-10-31T23:22:23;9.93;;;4.47;;
31594;SDS011;18200;48.726;8.892;2023-10-31T23:26:23;7.28;;;3.92;;
31594;SDS011;18200;48.726;8.892;2023-10-31T23:30:23;9.48;;;2.90;;
31594;SDS011;18200;48.726;8.892;2023-10-31T23:34:24;7.35;;;3.55;;
31594;SDS011;18200;48.726;8.892;2023-10-31T23:38:24;4.63;;;2.55;;
31594;SDS011;18200;48.726;8.892;2023-10-31T23:42:25;6.20;;;2.40;;
31594;SDS011;18200;48.726;8.892;2023-10-31T23:46:25;4.82;;;2.60;;
31594;SDS011;18200;48.726;8.892;2023-10-31T23:50:26;5.50;;;2.40;;
31594;SDS011;18200;48.726;8.892;2023-10-31T23:54:26;7.43;;;2.80;;
31594;SDS011;18200;48.726;8.892;2023-10-31T23:58:26;5.40;;;1.90;;
